RJCW/WKJ METAR and TAF weather

Enter ICAO airport designator
Station Type Date Time Source
RJCW METAR 2019/05/26 09:00 UTC NOAA

RJCW 260900Z 19010KT 9999 FEW040 20/12 Q1010


Station Type Date Time Source
RJCW Decoded METAR 2019/05/26 09:00 UTC NOAA

Wakkanai Airport, Japan (RJCW) 45-24N 141-48E 11M
May 26, 2019 - 05:00 AM EDT / 2019.05.26 0900 UTC
Wind: from the S (190 degrees) at 12 MPH (10 KT):0
Visibility: greater than 7 mile(s):0
Sky conditions: mostly clear
Temperature: 68 F (20 C)
Dew Point: 53 F (12 C)
Relative Humidity: 59%
Pressure (altimeter): 29.83 in. Hg (1010 hPa)
ob: RJCW 260900Z 19010KT 9999 FEW040 20/12 Q1010
cycle: 9

Station Type Date Time Source
RJCW TAF UTC NOAA

Error!

Example: see airport list